Time;durP1;ratioP1;P1;durP2;ratioP2;P2;SDS_P1;SDS_P2;PMS_P1;PMS_P2;Temp;Humidity;BMP_temperature;BMP_pressure;BME280_temperature;BME280_humidity;BME280_pressure;Samples;Min_cycle;Max_cycle;Signal;HPM_P1;HPM_P2
2023/07/12 00:00:34;;;;;;;4.60;3.20;;;24.20;68.40;;;;;;4923217;29;20043;-64
2023/07/12 00:03:00;;;;;;;5.68;4.28;;;24.20;68.90;;;;;;4926606;29;20020;-63
2023/07/12 00:05:28;;;;;;;4.13;3.13;;;24.20;68.60;;;;;;4926987;29;20043;-64
2023/07/12 00:07:57;;;;;;;4.40;2.95;;;24.10;68.60;;;;;;4924746;29;20067;-63
2023/07/12 00:10:26;;;;;;;6.38;3.63;;;24.20;68.40;;;;;;4924105;29;20668;-63
2023/07/12 00:12:53;;;;;;;7.32;3.60;;;24.20;68.40;;;;;;4923884;29;20154;-63
2023/07/12 00:15:24;;;;;;;10.02;4.15;;;24.10;68.60;;;;;;4921318;29;20042;-63
2023/07/12 00:17:51;;;;;;;6.25;3.85;;;24.10;68.90;;;;;;4928045;29;20046;-62
2023/07/12 00:20:28;;;;;;;5.53;3.60;;;24.10;68.80;;;;;;4928578;29;20047;-63
2023/07/12 00:22:54;;;;;;;5.90;3.75;;;24.10;68.80;;;;;;4908544;29;20119;-63
2023/07/12 00:25:22;;;;;;;4.22;3.42;;;24.10;69.30;;;;;;4925907;29;20087;-63
2023/07/12 00:27:48;;;;;;;6.35;3.35;;;24.10;69.10;;;;;;4923238;29;20037;-63
2023/07/12 00:30:25;;;;;;;4.45;3.17;;;24.10;68.80;;;;;;4906494;29;20051;-63
2023/07/12 00:32:52;;;;;;;4.68;4.28;;;24.10;68.90;;;;;;4921150;29;20663;-63
2023/07/12 00:35:24;;;;;;;5.22;3.75;;;24.10;69.00;;;;;;4929225;29;20100;-63
2023/07/12 00:37:52;;;;;;;6.25;3.95;;;24.10;69.10;;;;;;4927043;29;20131;-64
2023/07/12 00:40:41;;;;;;;4.53;3.22;;;24.10;69.30;;;;;;4912721;29;20036;-63
2023/07/12 00:43:30;;;;;;;4.50;3.17;;;24.10;69.40;;;;;;4903583;29;20068;-63
2023/07/12 00:46:00;;;;;;;7.95;3.53;;;24.00;69.30;;;;;;4888532;29;20062;-63
2023/07/12 00:48:25;;;;;;;4.85;3.65;;;24.00;70.00;;;;;;4920109;29;20038;-63
2023/07/12 00:50:52;;;;;;;5.88;3.50;;;24.00;69.80;;;;;;4904103;29;20044;-63
2023/07/12 00:53:23;;;;;;;6.03;4.05;;;24.00;69.80;;;;;;4928625;29;20377;-63
2023/07/12 00:55:57;;;;;;;4.82;3.80;;;24.00;70.10;;;;;;4903624;29;20032;-63
2023/07/12 00:58:30;;;;;;;7.18;3.58;;;24.00;70.50;;;;;;4924473;29;20830;-63
2023/07/12 01:00:58;;;;;;;6.90;3.95;;;23.90;70.30;;;;;;4924416;29;20043;-64
2023/07/12 01:03:28;;;;;;;5.88;4.07;;;23.90;70.60;;;;;;4911487;29;20043;-64
2023/07/12 01:05:54;;;;;;;5.43;3.33;;;23.90;70.00;;;;;;4911343;29;20032;-63
2023/07/12 01:08:21;;;;;;;8.00;4.30;;;23.90;70.60;;;;;;4919652;29;20614;-63
2023/07/12 01:10:47;;;;;;;5.38;3.80;;;23.90;70.50;;;;;;4927012;29;20040;-63
2023/07/12 01:13:13;;;;;;;6.28;4.07;;;23.90;70.50;;;;;;4927345;29;20044;-63
2023/07/12 01:15:38;;;;;;;6.65;4.10;;;23.90;71.30;;;;;;4925212;29;20102;-63
2023/07/12 01:18:06;;;;;;;7.18;3.90;;;23.90;71.20;;;;;;4925455;29;20047;-63
2023/07/12 01:20:38;;;;;;;7.60;3.42;;;23.90;71.20;;;;;;4909882;29;20138;-63
2023/07/12 01:23:04;;;;;;;5.00;3.25;;;23.80;71.40;;;;;;4922724;29;20028;-63
2023/07/12 01:25:37;;;;;;;6.78;4.25;;;23.90;71.30;;;;;;4918852;29;20039;-63
2023/07/12 01:28:03;;;;;;;4.80;3.38;;;23.80;71.30;;;;;;4924727;29;20403;-63
2023/07/12 01:30:29;;;;;;;5.63;4.13;;;23.80;71.40;;;;;;4927787;29;20039;-63
2023/07/12 01:32:58;;;;;;;5.47;3.55;;;23.90;71.40;;;;;;4925603;29;20129;-63
2023/07/12 01:35:24;;;;;;;5.90;3.67;;;23.80;71.30;;;;;;4903554;29;20901;-63
2023/07/12 01:37:53;;;;;;;5.85;3.75;;;23.80;71.50;;;;;;4922574;29;20068;-63
2023/07/12 01:40:21;;;;;;;4.72;3.92;;;23.80;71.60;;;;;;4921861;29;20496;-63
2023/07/12 01:42:47;;;;;;;5.90;3.67;;;23.80;71.70;;;;;;4902180;29;20445;-63
2023/07/12 01:45:13;;;;;;;4.60;3.55;;;23.80;72.10;;;;;;4907666;29;20060;-63
2023/07/12 01:47:41;;;;;;;5.25;4.15;;;23.70;72.00;;;;;;4926795;29;20031;-63
2023/07/12 01:50:07;;;;;;;5.90;4.00;;;23.70;72.00;;;;;;4926436;29;20032;-63
2023/07/12 01:52:33;;;;;;;5.15;3.58;;;23.70;72.00;;;;;;4923642;29;20038;-63
2023/07/12 01:54:58;;;;;;;5.03;3.78;;;23.70;72.20;;;;;;4902808;29;20524;-63
2023/07/12 01:57:24;;;;;;;5.43;3.58;;;23.70;72.10;;;;;;4921545;29;20050;-63
2023/07/12 01:59:50;;;;;;;6.47;3.60;;;23.70;72.40;;;;;;4909967;29;20032;-63
2023/07/12 02:02:16;;;;;;;7.15;4.28;;;23.70;72.40;;;;;;4903655;29;20420;-63
2023/07/12 02:04:41;;;;;;;5.85;3.97;;;23.70;72.60;;;;;;4909487;29;20531;-63
2023/07/12 02:07:07;;;;;;;4.85;4.05;;;23.70;72.40;;;;;;4910977;29;20519;-63
2023/07/12 02:09:39;;;;;;;5.38;3.63;;;23.60;72.90;;;;;;4924139;29;20091;-63
2023/07/12 02:12:05;;;;;;;6.57;4.10;;;23.60;73.20;;;;;;4924494;29;20035;-63
2023/07/12 02:14:36;;;;;;;5.05;3.90;;;23.60;73.00;;;;;;4900887;29;20028;-63
2023/07/12 02:17:02;;;;;;;4.63;4.00;;;23.60;73.10;;;;;;4921545;29;20046;-63
2023/07/12 02:19:28;;;;;;;6.00;3.80;;;23.50;73.80;;;;;;4920253;29;20104;-63
2023/07/12 02:21:54;;;;;;;9.75;3.70;;;23.50;74.00;;;;;;4923941;29;20040;-63
2023/07/12 02:24:20;;;;;;;6.00;4.18;;;23.50;73.90;;;;;;4923761;29;20042;-63
2023/07/12 02:26:45;;;;;;;7.30;3.60;;;23.50;74.10;;;;;;4918448;29;20040;-63
2023/07/12 02:29:14;;;;;;;4.93;3.97;;;23.60;74.00;;;;;;4924022;29;20452;-63
2023/07/12 02:31:40;;;;;;;5.80;4.45;;;23.60;73.40;;;;;;4908107;29;20043;-63
2023/07/12 02:34:06;;;;;;;5.60;3.75;;;23.60;73.70;;;;;;4910562;29;20747;-65
2023/07/12 02:36:32;;;;;;;5.10;3.80;;;23.60;74.20;;;;;;4920077;29;20642;-63
2023/07/12 02:38:57;;;;;;;6.53;4.43;;;23.70;73.20;;;;;;4927389;29;20028;-63
2023/07/12 02:41:23;;;;;;;8.52;4.35;;;23.70;72.80;;;;;;4926408;29;20070;-63
2023/07/12 02:43:49;;;;;;;5.90;4.75;;;23.70;73.20;;;;;;4923923;29;20699;-62
2023/07/12 02:46:15;;;;;;;8.20;4.78;;;23.80;72.80;;;;;;4924097;29;20512;-62
2023/07/12 02:48:41;;;;;;;7.50;4.47;;;23.80;72.80;;;;;;4920609;29;20095;-62
2023/07/12 02:51:06;;;;;;;9.60;5.35;;;23.80;72.60;;;;;;4921818;29;20415;-63
2023/07/12 02:53:33;;;;;;;6.90;5.32;;;23.60;73.10;;;;;;4917963;29;20047;-63
2023/07/12 02:55:59;;;;;;;6.82;4.28;;;23.50;73.50;;;;;;4923079;29;20031;-63
2023/07/12 02:58:25;;;;;;;5.07;4.20;;;23.60;73.60;;;;;;4926346;29;20043;-63
2023/07/12 03:00:58;;;;;;;6.55;4.50;;;23.60;73.60;;;;;;4923908;29;20032;-63
2023/07/12 03:03:26;;;;;;;8.02;4.55;;;23.60;73.10;;;;;;4921913;29;20035;-62
2023/07/12 03:05:52;;;;;;;8.52;5.28;;;23.60;73.50;;;;;;4919985;29;20039;-63
2023/07/12 03:08:18;;;;;;;10.32;6.00;;;23.50;74.20;;;;;;4920122;29;20511;-62
2023/07/12 03:10:43;;;;;;;7.72;4.82;;;23.50;73.90;;;;;;4918773;29;20043;-63
2023/07/12 03:13:09;;;;;;;7.07;4.93;;;23.50;73.90;;;;;;4918261;29;20028;-63
2023/07/12 03:15:38;;;;;;;8.32;5.10;;;23.50;73.80;;;;;;4923866;29;20456;-63
2023/07/12 03:18:04;;;;;;;8.27;5.78;;;23.60;73.70;;;;;;4916990;29;20032;-63
2023/07/12 03:20:33;;;;;;;7.63;5.13;;;23.60;74.10;;;;;;4923098;29;20043;-63
2023/07/12 03:22:58;;;;;;;8.32;5.97;;;23.60;73.90;;;;;;4922103;29;20035;-63
2023/07/12 03:25:24;;;;;;;8.00;5.20;;;23.70;74.20;;;;;;4920574;29;20036;-63
2023/07/12 03:27:50;;;;;;;7.40;5.10;;;23.70;74.10;;;;;;4918768;29;20044;-63
2023/07/12 03:30:16;;;;;;;10.05;5.40;;;23.70;74.40;;;;;;4920158;29;20035;-62
2023/07/12 03:32:42;;;;;;;7.80;5.25;;;23.70;74.00;;;;;;4929618;29;20797;-63
2023/07/12 03:35:08;;;;;;;6.75;5.47;;;23.70;74.40;;;;;;4931508;29;20070;-63
2023/07/12 03:37:33;;;;;;;8.82;5.05;;;23.70;74.90;;;;;;4929460;29;20423;-63
2023/07/12 03:39:59;;;;;;;7.97;5.25;;;23.60;75.40;;;;;;4928347;29;20043;-65
2023/07/12 03:42:25;;;;;;;9.20;4.85;;;23.70;75.40;;;;;;4925715;29;20059;-63
2023/07/12 03:44:51;;;;;;;6.82;5.70;;;23.60;76.20;;;;;;4924578;29;20683;-64
2023/07/12 03:47:16;;;;;;;6.95;5.53;;;23.60;77.20;;;;;;4924196;29;20051;-62
2023/07/12 03:49:42;;;;;;;8.52;5.68;;;23.60;77.50;;;;;;4929097;29;20182;-63
2023/07/12 03:52:08;;;;;;;6.93;5.45;;;23.50;77.60;;;;;;4930803;29;20128;-62
2023/07/12 03:54:34;;;;;;;7.72;5.63;;;23.50;77.70;;;;;;4930129;29;20035;-63
2023/07/12 03:56:59;;;;;;;9.13;6.13;;;23.50;77.50;;;;;;4928695;29;20038;-62
2023/07/12 03:59:25;;;;;;;8.32;5.82;;;23.50;78.30;;;;;;4926734;29;20035;-62
2023/07/12 04:01:51;;;;;;;9.50;5.90;;;23.50;78.90;;;;;;4925157;29;20528;-62
2023/07/12 04:04:17;;;;;;;8.43;5.93;;;23.50;78.80;;;;;;4927926;29;20822;-64
2023/07/12 04:06:42;;;;;;;9.95;6.40;;;23.60;77.20;;;;;;4925488;29;20043;-62
2023/07/12 04:09:09;;;;;;;7.85;5.95;;;23.60;78.30;;;;;;4931305;29;20035;-62
2023/07/12 04:11:37;;;;;;;8.05;6.00;;;23.70;77.40;;;;;;4930462;29;20250;-62
2023/07/12 04:14:03;;;;;;;9.07;5.88;;;23.70;78.20;;;;;;4930412;29;20058;-62
2023/07/12 04:16:30;;;;;;;10.02;6.45;;;23.70;78.10;;;;;;4928867;29;20174;-62
2023/07/12 04:18:56;;;;;;;7.82;5.93;;;23.70;78.90;;;;;;4925994;29;20043;-62
2023/07/12 04:21:22;;;;;;;8.82;6.13;;;23.70;79.90;;;;;;4926479;29;20594;-63
2023/07/12 04:23:49;;;;;;;7.97;5.97;;;23.70;80.20;;;;;;4921864;29;20059;-62
2023/07/12 04:26:17;;;;;;;11.70;6.70;;;23.80;79.20;;;;;;4930858;29;20042;-62
2023/07/12 04:28:46;;;;;;;7.95;5.60;;;23.80;80.10;;;;;;4928852;29;20048;-62
2023/07/12 04:31:12;;;;;;;9.63;6.40;;;23.80;81.30;;;;;;4929225;29;20079;-63
2023/07/12 04:33:38;;;;;;;10.40;6.18;;;23.80;79.90;;;;;;4925766;29;20435;-62
2023/07/12 04:36:08;;;;;;;8.15;5.60;;;23.80;79.70;;;;;;4926508;29;20028;-63
2023/07/12 04:38:35;;;;;;;9.70;6.75;;;23.90;80.30;;;;;;4923312;29;20036;-63
2023/07/12 04:41:01;;;;;;;6.82;5.38;;;23.90;81.70;;;;;;4928240;29;20778;-63
2023/07/12 04:43:27;;;;;;;8.52;6.15;;;23.80;82.60;;;;;;4927203;29;20035;-63
2023/07/12 04:45:53;;;;;;;9.63;6.70;;;23.90;83.40;;;;;;4924148;29;20036;-63
2023/07/12 04:48:20;;;;;;;9.77;6.43;;;23.90;83.90;;;;;;4926057;29;20134;-63
2023/07/12 04:50:49;;;;;;;9.40;7.00;;;23.90;83.90;;;;;;4923775;29;20036;-63
2023/07/12 04:53:14;;;;;;;11.35;7.00;;;23.90;84.10;;;;;;4924499;29;20078;-62
2023/07/12 04:55:40;;;;;;;10.65;7.57;;;23.90;85.30;;;;;;4920297;29;20556;-62
2023/07/12 04:58:06;;;;;;;7.93;5.82;;;23.90;85.10;;;;;;4922792;29;20028;-63
2023/07/12 05:00:33;;;;;;;9.35;7.03;;;23.90;82.50;;;;;;4925542;29;20572;-63
2023/07/12 05:02:59;;;;;;;10.23;6.90;;;23.90;83.50;;;;;;4927343;29;20028;-63
2023/07/12 05:05:25;;;;;;;10.57;7.00;;;24.00;82.50;;;;;;4924664;29;20088;-62
2023/07/12 05:07:51;;;;;;;12.38;7.20;;;24.10;82.30;;;;;;4924277;29;20485;-63
2023/07/12 05:10:17;;;;;;;9.95;7.43;;;24.10;83.70;;;;;;4921216;29;20036;-64
2023/07/12 05:12:43;;;;;;;9.70;6.95;;;24.20;83.50;;;;;;4922730;29;20489;-63
2023/07/12 05:15:10;;;;;;;10.45;7.32;;;24.30;84.60;;;;;;4922960;29;20031;-63
2023/07/12 05:17:37;;;;;;;9.52;7.03;;;24.40;86.00;;;;;;4921881;29;20385;-63
2023/07/12 05:20:05;;;;;;;10.23;7.72;;;24.40;85.70;;;;;;4926686;29;20054;-63
2023/07/12 05:22:30;;;;;;;9.55;7.00;;;24.40;86.10;;;;;;4926389;29;20031;-63
2023/07/12 05:24:58;;;;;;;11.88;7.18;;;24.50;85.00;;;;;;4924942;29;20040;-63
2023/07/12 05:27:24;;;;;;;10.23;6.43;;;24.50;83.50;;;;;;4924315;29;20034;-63
2023/07/12 05:29:50;;;;;;;14.02;7.20;;;24.60;83.70;;;;;;4922053;29;20099;-63
2023/07/12 05:32:16;;;;;;;12.25;6.47;;;24.60;82.80;;;;;;4921555;29;20039;-63
2023/07/12 05:34:42;;;;;;;9.35;6.45;;;24.70;82.60;;;;;;4901790;29;20047;-63
2023/07/12 05:37:10;;;;;;;8.27;6.50;;;24.80;83.70;;;;;;4928015;29;20074;-63
2023/07/12 05:39:36;;;;;;;9.73;6.60;;;24.80;83.00;;;;;;4925980;29;20063;-63
2023/07/12 05:42:02;;;;;;;7.20;6.18;;;24.80;82.30;;;;;;4925473;29;20070;-63
2023/07/12 05:44:27;;;;;;;10.48;6.75;;;24.80;83.30;;;;;;4923756;29;20051;-63
2023/07/12 05:46:53;;;;;;;9.60;5.93;;;24.90;81.70;;;;;;4922123;29;20036;-63
2023/07/12 05:49:19;;;;;;;6.90;5.95;;;24.90;82.30;;;;;;4921676;29;20024;-63
2023/07/12 05:51:45;;;;;;;7.45;6.03;;;24.90;83.00;;;;;;4922622;29;20044;-62
2023/07/12 05:54:12;;;;;;;8.77;5.60;;;24.90;82.30;;;;;;4927795;29;20134;-63
2023/07/12 05:56:38;;;;;;;7.28;5.53;;;24.90;83.10;;;;;;4926304;29;20063;-63
2023/07/12 05:59:04;;;;;;;8.77;5.57;;;25.00;83.90;;;;;;4925802;29;20460;-63
2023/07/12 06:01:30;;;;;;;8.85;5.10;;;25.00;84.50;;;;;;4923424;29;20099;-63
2023/07/12 06:03:56;;;;;;;7.00;4.78;;;25.00;83.50;;;;;;4924963;29;20095;-64
2023/07/12 06:06:22;;;;;;;7.45;5.07;;;25.00;83.60;;;;;;4921427;29;20040;-63
2023/07/12 06:08:48;;;;;;;7.20;4.68;;;25.10;83.70;;;;;;4919408;29;20417;-63
2023/07/12 06:11:13;;;;;;;6.97;5.00;;;25.30;84.50;;;;;;4924532;29;20526;-63
2023/07/12 06:13:39;;;;;;;8.48;4.32;;;25.40;83.90;;;;;;4909885;29;20077;-63
2023/07/12 06:16:06;;;;;;;7.70;4.93;;;25.50;83.90;;;;;;4925613;29;20032;-63
2023/07/12 06:18:32;;;;;;;6.05;4.45;;;25.60;83.80;;;;;;4923268;29;20417;-62
2023/07/12 06:21:00;;;;;;;8.00;5.75;;;25.70;84.00;;;;;;4922882;29;20036;-63
2023/07/12 06:23:27;;;;;;;9.20;5.18;;;25.70;84.60;;;;;;4920581;29;20038;-63
2023/07/12 06:25:57;;;;;;;7.97;3.90;;;25.70;84.50;;;;;;4919770;29;20044;-63
2023/07/12 06:28:23;;;;;;;5.65;4.10;;;25.80;85.00;;;;;;4923405;29;20028;-63
2023/07/12 06:30:49;;;;;;;8.02;4.63;;;25.90;84.40;;;;;;4926066;29;20480;-63
2023/07/12 06:33:15;;;;;;;7.32;4.50;;;26.00;82.80;;;;;;4925737;29;20032;-63
2023/07/12 06:35:40;;;;;;;11.10;4.65;;;25.90;84.30;;;;;;4922806;29;20412;-63
2023/07/12 06:38:06;;;;;;;7.95;4.60;;;26.00;84.10;;;;;;4923934;29;20031;-63
2023/07/12 06:40:32;;;;;;;7.80;4.47;;;26.00;84.00;;;;;;4920679;29;20222;-63
2023/07/12 06:42:59;;;;;;;5.82;4.63;;;26.10;84.20;;;;;;4920714;29;20032;-63
2023/07/12 06:45:25;;;;;;;6.85;4.78;;;26.20;84.50;;;;;;4900637;29;20086;-63
2023/07/12 06:47:51;;;;;;;7.45;4.30;;;26.40;84.80;;;;;;4925429;29;20448;-63
2023/07/12 06:50:17;;;;;;;7.22;4.38;;;26.60;83.20;;;;;;4925747;29;20034;-63
2023/07/12 06:52:43;;;;;;;7.63;4.75;;;26.70;83.00;;;;;;4923313;29;20036;-63
2023/07/12 06:55:09;;;;;;;6.95;4.53;;;26.80;82.00;;;;;;4923652;29;20036;-63
2023/07/12 06:57:35;;;;;;;7.15;4.75;;;26.90;81.90;;;;;;4920342;29;20036;-63
2023/07/12 07:00:07;;;;;;;9.88;5.10;;;26.90;80.90;;;;;;4921359;29;20024;-63
2023/07/12 07:02:33;;;;;;;7.25;4.80;;;26.70;80.90;;;;;;4917019;29;20044;-64
2023/07/12 07:04:59;;;;;;;9.00;4.60;;;26.60;82.60;;;;;;4925634;29;20024;-63
2023/07/12 07:07:25;;;;;;;7.28;5.05;;;26.60;82.30;;;;;;4926044;29;20042;-63
2023/07/12 07:09:50;;;;;;;9.13;5.03;;;26.50;82.30;;;;;;4923325;29;20701;-63
2023/07/12 07:12:16;;;;;;;10.55;4.97;;;26.40;81.30;;;;;;4924956;29;20039;-64
2023/07/12 07:14:42;;;;;;;9.20;5.05;;;26.30;81.20;;;;;;4920191;29;20123;-65
2023/07/12 07:17:08;;;;;;;9.68;5.30;;;26.30;81.70;;;;;;4921438;29;20622;-64
2023/07/12 07:19:34;;;;;;;9.90;5.40;;;26.20;80.90;;;;;;4917449;29;20043;-64
2023/07/12 07:22:00;;;;;;;8.20;5.28;;;26.20;82.70;;;;;;4923029;29;20410;-63
2023/07/12 07:24:26;;;;;;;9.82;5.57;;;26.30;81.40;;;;;;4926032;29;20039;-63
2023/07/12 07:26:51;;;;;;;11.65;5.70;;;26.30;81.70;;;;;;4925100;29;20034;-63
2023/07/12 07:29:17;;;;;;;7.57;5.45;;;26.40;80.10;;;;;;4923772;29;20043;-63
2023/07/12 07:31:43;;;;;;;7.72;5.15;;;26.30;80.00;;;;;;4920631;29;20040;-64
2023/07/12 07:34:09;;;;;;;7.72;5.30;;;26.30;80.60;;;;;;4921567;29;20034;-63
2023/07/12 07:36:35;;;;;;;9.25;5.38;;;26.20;80.20;;;;;;4917785;29;20520;-63
2023/07/12 07:39:01;;;;;;;8.50;5.18;;;26.20;79.50;;;;;;4919534;29;20035;-63
2023/07/12 07:41:27;;;;;;;5.43;4.50;;;26.10;80.20;;;;;;4926259;29;20028;-63
2023/07/12 07:43:53;;;;;;;8.80;5.07;;;26.00;79.50;;;;;;4923875;29;20044;-64
2023/07/12 07:46:19;;;;;;;7.18;4.38;;;26.00;80.20;;;;;;4924156;29;20040;-63
2023/07/12 07:48:45;;;;;;;7.38;4.88;;;26.10;79.80;;;;;;4920521;29;20042;-63
2023/07/12 07:51:13;;;;;;;5.93;4.22;;;26.20;79.50;;;;;;4922154;29;20043;-64
2023/07/12 07:53:39;;;;;;;5.35;3.78;;;26.20;79.30;;;;;;4917447;29;20047;-63
2023/07/12 07:56:04;;;;;;;6.55;3.58;;;26.20;78.60;;;;;;4919527;29;20579;-63
2023/07/12 07:58:31;;;;;;;6.93;3.58;;;26.20;78.50;;;;;;4923206;29;20040;-63
2023/07/12 08:00:57;;;;;;;3.63;3.03;;;26.10;78.40;;;;;;4924341;29;20028;-64
2023/07/12 08:03:23;;;;;;;4.00;3.40;;;26.10;79.10;;;;;;4925123;29;20039;-64
2023/07/12 08:05:49;;;;;;;5.78;3.42;;;26.10;80.30;;;;;;4920209;29;20064;-63
2023/07/12 08:08:15;;;;;;;8.00;3.72;;;26.20;79.50;;;;;;4921759;29;20219;-64
2023/07/12 08:10:41;;;;;;;4.72;3.70;;;26.30;80.60;;;;;;4919099;29;20069;-64
2023/07/12 08:13:07;;;;;;;5.88;3.97;;;26.40;81.10;;;;;;4915902;29;20036;-65
2023/07/12 08:15:33;;;;;;;3.53;3.15;;;26.50;79.60;;;;;;4922814;29;20087;-63
2023/07/12 08:17:59;;;;;;;3.40;2.60;;;26.60;78.90;;;;;;4928144;29;20024;-64
2023/07/12 08:20:25;;;;;;;4.30;3.20;;;26.70;78.80;;;;;;4924004;29;20040;-65
2023/07/12 08:22:52;;;;;;;4.18;3.00;;;26.70;78.40;;;;;;4924910;29;20404;-63
2023/07/12 08:25:18;;;;;;;4.15;2.75;;;26.80;78.40;;;;;;4924081;29;20670;-63
2023/07/12 08:27:44;;;;;;;3.63;2.70;;;26.90;78.70;;;;;;4922006;29;20051;-63
2023/07/12 08:30:10;;;;;;;2.88;2.58;;;26.90;79.00;;;;;;4925153;29;20031;-63
2023/07/12 08:32:36;;;;;;;2.78;2.53;;;27.00;77.80;;;;;;4928704;29;20035;-63
2023/07/12 08:35:03;;;;;;;6.00;3.20;;;26.90;77.90;;;;;;4928556;29;20051;-63
2023/07/12 08:37:30;;;;;;;7.10;2.95;;;26.80;78.40;;;;;;4927652;29;20799;-63
2023/07/12 08:39:56;;;;;;;2.92;2.45;;;26.90;79.60;;;;;;4925604;29;20069;-63
2023/07/12 08:42:25;;;;;;;4.68;2.42;;;26.90;79.30;;;;;;4925265;29;20251;-63
2023/07/12 08:44:52;;;;;;;2.88;2.20;;;27.00;78.70;;;;;;4921567;29;20096;-63
2023/07/12 08:47:22;;;;;;;2.00;1.70;;;26.90;78.80;;;;;;4922542;29;20043;-63
2023/07/12 08:49:49;;;;;;;3.17;2.10;;;26.80;78.30;;;;;;4920449;29;20679;-63
2023/07/12 08:52:18;;;;;;;1.90;1.48;;;26.70;78.90;;;;;;4928630;29;20103;-64
2023/07/12 08:54:44;;;;;;;2.70;1.73;;;26.70;79.10;;;;;;4926572;29;20043;-63
2023/07/12 08:57:15;;;;;;;2.80;2.03;;;26.70;79.30;;;;;;4926798;29;20039;-64
2023/07/12 08:59:43;;;;;;;1.80;1.60;;;26.70;78.30;;;;;;4923764;29;20028;-63
2023/07/12 09:02:21;;;;;;;3.05;1.38;;;26.70;77.50;;;;;;4924452;29;20163;-63
2023/07/12 09:04:47;;;;;;;1.50;1.38;;;26.60;78.30;;;;;;4922540;29;20501;-63
2023/07/12 09:07:21;;;;;;;2.50;1.30;;;26.60;77.50;;;;;;4923718;29;20614;-63
2023/07/12 09:09:48;;;;;;;2.90;1.40;;;26.50;78.80;;;;;;4927824;29;20039;-63
2023/07/12 09:12:35;;;;;;;3.70;1.88;;;26.60;78.90;;;;;;4927925;29;20042;-63
2023/07/12 09:15:10;;;;;;;2.97;1.80;;;26.70;79.50;;;;;;4925771;29;20399;-63
2023/07/12 09:17:42;;;;;;;3.45;1.75;;;26.80;78.10;;;;;;4922668;29;20159;-63
2023/07/12 09:20:29;;;;;;;4.00;1.70;;;26.80;77.40;;;;;;4923363;29;20072;-63
2023/07/12 09:22:56;;;;;;;2.33;1.75;;;26.80;78.70;;;;;;4920732;29;20036;-63
2023/07/12 09:25:25;;;;;;;2.60;1.77;;;27.00;79.60;;;;;;4921594;29;20496;-63
2023/07/12 09:27:51;;;;;;;2.25;2.00;;;27.10;79.10;;;;;;4927056;29;20059;-63
2023/07/12 09:30:25;;;;;;;4.35;2.28;;;27.20;78.60;;;;;;4926912;29;20040;-63
2023/07/12 09:32:56;;;;;;;3.10;2.10;;;27.30;78.60;;;;;;4923686;29;20076;-63
2023/07/12 09:35:31;;;;;;;3.10;2.15;;;27.40;77.80;;;;;;4920722;29;20401;-63
2023/07/12 09:37:59;;;;;;;3.15;2.50;;;27.40;76.70;;;;;;4922554;29;20147;-63
2023/07/12 09:40:29;;;;;;;3.95;2.10;;;27.30;77.60;;;;;;4920783;29;20039;-63
2023/07/12 09:43:02;;;;;;;4.50;1.90;;;27.30;76.80;;;;;;4919961;29;20695;-64
2023/07/12 09:45:33;;;;;;;3.08;1.60;;;27.40;76.60;;;;;;4920754;29;20527;-63
2023/07/12 09:48:42;;;;;;;7.05;1.75;;;27.40;76.10;;;;;;4925949;29;20036;-63
2023/07/12 09:51:07;;;;;;;2.00;1.70;;;27.50;76.30;;;;;;4918939;29;20061;-63
2023/07/12 09:53:48;;;;;;;3.40;1.60;;;27.50;75.80;;;;;;4925971;29;20518;-62
2023/07/12 09:56:29;;;;;;;1.92;1.42;;;27.60;75.90;;;;;;4921538;29;20042;-64
2023/07/12 09:59:01;;;;;;;2.75;1.73;;;27.70;75.20;;;;;;4903685;29;20040;-63
2023/07/12 10:01:44;;;;;;;2.50;1.40;;;27.70;73.70;;;;;;4903797;29;20485;-63
2023/07/12 10:04:22;;;;;;;2.40;1.80;;;27.70;75.20;;;;;;4924229;29;20031;-63
2023/07/12 10:06:49;;;;;;;3.33;1.60;;;27.70;74.40;;;;;;4924163;29;20036;-63
2023/07/12 10:09:26;;;;;;;1.52;1.33;;;27.80;75.30;;;;;;4924573;29;20059;-63
2023/07/12 10:12:00;;;;;;;6.22;1.40;;;27.80;74.80;;;;;;4923971;29;20044;-63
2023/07/12 10:14:33;;;;;;;2.10;1.52;;;27.90;73.70;;;;;;4920090;29;20044;-63
2023/07/12 10:16:59;;;;;;;3.97;1.50;;;27.90;73.50;;;;;;4918866;29;20039;-63
2023/07/12 10:19:38;;;;;;;3.13;1.45;;;28.00;72.80;;;;;;4923926;29;20032;-63
2023/07/12 10:22:14;;;;;;;2.42;1.52;;;28.00;70.40;;;;;;4926095;29;20031;-63
2023/07/12 10:24:43;;;;;;;2.75;1.52;;;27.90;70.90;;;;;;4924019;29;20035;-63
2023/07/12 10:27:27;;;;;;;3.08;1.70;;;27.80;70.90;;;;;;4924095;29;20036;-62
2023/07/12 10:29:58;;;;;;;4.90;1.50;;;27.80;70.50;;;;;;4921276;29;20059;-62
2023/07/12 10:32:29;;;;;;;1.67;1.30;;;27.90;70.20;;;;;;4920193;29;20082;-62
2023/07/12 10:35:16;;;;;;;2.88;1.00;;;28.00;71.20;;;;;;4923054;29;20504;-62
2023/07/12 10:37:51;;;;;;;2.20;1.38;;;28.10;69.30;;;;;;4924150;29;20036;-63
2023/07/12 10:40:23;;;;;;;3.15;1.30;;;28.20;68.30;;;;;;4924897;29;20034;-62
2023/07/12 10:43:02;;;;;;;1.33;1.23;;;28.40;67.50;;;;;;4924864;29;20040;-62
2023/07/12 10:45:34;;;;;;;2.05;1.10;;;28.60;67.50;;;;;;4921850;29;20035;-62
2023/07/12 10:48:01;;;;;;;1.00;0.90;;;28.70;65.20;;;;;;4921806;29;20028;-62
2023/07/12 10:50:48;;;;;;;1.83;1.30;;;28.70;65.70;;;;;;4919125;29;20036;-63
2023/07/12 10:53:24;;;;;;;1.17;1.08;;;28.90;65.30;;;;;;4916544;29;20073;-62
2023/07/12 10:56:08;;;;;;;1.58;1.20;;;29.00;66.20;;;;;;4925163;29;20122;-63
2023/07/12 10:58:46;;;;;;;3.35;1.30;;;29.00;64.80;;;;;;4922300;29;20027;-63
2023/07/12 11:01:35;;;;;;;1.10;1.00;;;28.90;65.00;;;;;;4922933;29;20058;-63
2023/07/12 11:04:33;;;;;;;5.10;1.30;;;29.00;65.20;;;;;;4922281;29;20059;-63
2023/07/12 11:07:02;;;;;;;1.95;1.15;;;29.00;66.30;;;;;;4921069;29;20051;-63
2023/07/12 11:09:43;;;;;;;3.38;1.13;;;28.90;64.40;;;;;;4917716;29;20040;-63
2023/07/12 11:12:12;;;;;;;1.83;1.02;;;28.90;65.60;;;;;;4919394;29;20556;-64
2023/07/12 11:14:38;;;;;;;1.67;1.00;;;28.80;65.00;;;;;;4925462;29;20035;-63
2023/07/12 11:17:06;;;;;;;1.15;1.05;;;28.80;64.20;;;;;;4924433;29;20078;-63
2023/07/12 11:19:38;;;;;;;2.60;1.02;;;28.90;65.10;;;;;;4923283;29;20087;-63
2023/07/12 11:22:17;;;;;;;1.92;1.10;;;29.00;66.50;;;;;;4919822;29;20031;-62
2023/07/12 11:24:56;;;;;;;1.33;1.08;;;29.10;64.60;;;;;;4918390;29;20334;-62
2023/07/12 11:27:42;;;;;;;2.17;1.02;;;29.20;63.50;;;;;;4919432;29;20309;-62
2023/07/12 11:30:28;;;;;;;1.15;1.00;;;29.10;63.80;;;;;;4923487;29;20110;-63
2023/07/12 11:33:18;;;;;;;1.05;0.95;;;28.90;63.40;;;;;;4917432;29;20059;-62
2023/07/12 11:35:47;;;;;;;2.78;1.30;;;28.90;64.60;;;;;;4922145;29;20086;-63
2023/07/12 11:38:19;;;;;;;1.20;0.90;;;28.90;65.60;;;;;;4923207;29;20118;-63
2023/07/12 11:40:47;;;;;;;1.75;0.95;;;28.90;65.40;;;;;;4922476;29;20035;-62
2023/07/12 11:43:24;;;;;;;2.13;1.10;;;28.90;63.50;;;;;;4919705;29;20818;-63
2023/07/12 11:45:55;;;;;;;2.72;0.90;;;28.90;62.10;;;;;;4918166;29;20044;-62
2023/07/12 11:48:22;;;;;;;2.83;1.00;;;28.90;61.50;;;;;;4922463;29;20038;-62
2023/07/12 11:50:50;;;;;;;2.45;1.00;;;29.00;61.60;;;;;;4924134;29;20066;-62
2023/07/12 11:53:17;;;;;;;1.70;0.80;;;29.10;60.20;;;;;;4927907;29;20049;-63
2023/07/12 11:55:46;;;;;;;0.82;0.80;;;29.10;60.30;;;;;;4925130;29;20077;-63
2023/07/12 11:58:17;;;;;;;1.20;1.05;;;29.20;60.00;;;;;;4925373;29;20039;-62
2023/07/12 12:00:44;;;;;;;2.13;0.90;;;29.00;59.40;;;;;;4921568;29;20093;-63
2023/07/12 12:03:13;;;;;;;1.40;0.88;;;29.10;60.40;;;;;;4923171;29;20062;-63
2023/07/12 12:05:39;;;;;;;3.45;1.52;;;29.10;61.10;;;;;;4923071;29;20034;-63
2023/07/12 12:08:06;;;;;;;1.02;0.85;;;29.20;61.20;;;;;;4928926;29;20047;-63
2023/07/12 12:10:36;;;;;;;1.38;0.80;;;29.10;60.20;;;;;;4928045;29;20027;-63
2023/07/12 12:13:20;;;;;;;2.53;0.82;;;29.10;59.10;;;;;;4926009;29;20031;-63
2023/07/12 12:15:57;;;;;;;1.27;0.80;;;29.00;59.90;;;;;;4923585;29;20167;-63
2023/07/12 12:18:23;;;;;;;0.73;0.70;;;28.90;60.90;;;;;;4923298;29;20042;-63
2023/07/12 12:20:56;;;;;;;0.60;0.60;;;28.80;60.30;;;;;;4923172;29;20404;-63
2023/07/12 12:23:35;;;;;;;1.30;0.77;;;28.70;60.80;;;;;;4921931;29;20059;-63
2023/07/12 12:26:14;;;;;;;3.28;0.70;;;28.70;60.70;;;;;;4928004;29;20043;-63
2023/07/12 12:28:43;;;;;;;1.83;0.73;;;28.70;61.20;;;;;;4927501;29;20043;-63
2023/07/12 12:31:19;;;;;;;0.95;0.60;;;28.60;60.60;;;;;;4926151;29;20032;-62
2023/07/12 12:34:04;;;;;;;1.65;0.57;;;28.60;61.60;;;;;;4910087;29;20040;-63
2023/07/12 12:36:32;;;;;;;2.13;0.80;;;28.60;60.60;;;;;;4923049;29;20046;-62
2023/07/12 12:39:19;;;;;;;3.25;0.70;;;28.70;59.80;;;;;;4922265;29;20283;-63
2023/07/12 12:41:52;;;;;;;2.08;0.63;;;28.70;60.10;;;;;;4926378;29;20611;-63
2023/07/12 12:44:19;;;;;;;1.75;0.60;;;28.90;60.00;;;;;;4928028;29;20043;-62
2023/07/12 12:46:53;;;;;;;0.40;0.40;;;28.90;58.00;;;;;;4925361;29;20154;-64
2023/07/12 12:49:31;;;;;;;2.25;0.80;;;29.00;58.60;;;;;;4925408;29;20070;-63
2023/07/12 12:52:17;;;;;;;1.17;0.50;;;29.10;58.70;;;;;;4923981;29;20032;-63
2023/07/12 12:54:43;;;;;;;2.42;0.60;;;29.20;58.50;;;;;;4903564;29;20579;-62